Ruth, WV

11:53 AM EST on January 24, 2017 (GMT -0500)
Sherwood Forest, U.S. 119 Corridor G. | | Change Station

Elev 864 ft 38.33 °N, 81.70 °W | Updated 7 seconds ago

Overcast
Overcast
43.6 °F
Feels Like 41 °F
N
5.0
Wind Variable Wind from West

Today
High -- | Low -- °F
--% Chance of Precip.
Yesterday
High -- | Low -- °F
Precip. -- in
Pressure 29.80 in
Visibility 2.0 miles
Clouds Mostly Cloudy 700 ft
Overcast 1400 ft
Windchill 41 °F
Dew Point 43 °F
Humidity 98%
Rainfall 0.04 in
Snow Depth Not available.
7:37 AM 5:40 PM
Waning Crescent, 11% visible
SPECI KCRW 241619Z 29005KT 2SM -DZ BR BKN007 OVC014 06/05 A2980 RMK AO2 P0000 T00610050
Pressure 29.80 in
Visibility 2.0 miles
Clouds Mostly Cloudy 700 ft
Overcast 1400 ft
Windchill 41 °F
Dew Point 43 °F
Humidity 98%
Rainfall 0.04 in
Snow Depth Not available.
7:37 AM 5:40 PM
Waning Crescent, 11% visible
SPECI KCRW 241619Z 29005KT 2SM -DZ BR BKN007 OVC014 06/05 A2980 RMK AO2 P0000 T00610050

Get Your Daily Forecast Email!

Thanks for signing up!

Be on the lookout for a verification email in your inbox.

You'll start receiving the daily forecast at 8 AM.

×

10-Day Weather Forecast

Almanac

Astronomy

Jan. 24, 2017 Rise Set
Actual Time
Civil Twilight
Nautical Twilight
Astronomical Twilight
Moon
Length of Visible Light
Length of Day
Tomorrow will be .
, % of the Moon is Illuminated

Today's Extremes

State Highs State Lows

Community

WunderPhotos

Upload Photos

1,962,540 photos uploaded!

WunderBlog® & News

Nearby

Air Quality

  Air Quality AQ Index Pollutant
Not available.

Snow Depth

Station Depth Elevation

Earthquake Activity

City Distance Mag. Time & Date
Minimum magnitude displayed is 2.5.

Coastal Water Temperatures

Place Temperature

Stations

Nearby Weather Stations

Station Location Temp. Windchill Dew Point Humidity Wind Precip. Elev Updated Type
                   

Watches & Warnings

There are currently no watches in effect.